Time;durP1;ratioP1;P1;durP2;ratioP2;P2;SDS_P1;SDS_P2;PMS_P1;PMS_P2;Temp;Humidity;BMP_temperature;BMP_pressure;BME280_temperature;BME280_humidity;BME280_pressure;Samples;Min_cycle;Max_cycle;Signal;HPM_P1;HPM_P2
2021/03/21 00:00:50;;;;;;;7.55;1.75;;;6.30;90.70;;;;;;5046073;28;20013;-71
2021/03/21 00:03:17;;;;;;;3.85;1.15;;;6.40;90.70;;;;;;5045268;28;20020;-71
2021/03/21 00:05:42;;;;;;;4.95;0.95;;;6.40;90.70;;;;;;5045817;28;20080;-71
2021/03/21 00:08:11;;;;;;;6.80;0.90;;;6.40;90.70;;;;;;5040857;28;20044;-71
2021/03/21 00:10:37;;;;;;;6.85;1.27;;;6.40;90.70;;;;;;5065444;28;20027;-71
2021/03/21 00:13:03;;;;;;;7.70;1.63;;;6.40;90.80;;;;;;5065338;28;20008;-71
2021/03/21 00:15:29;;;;;;;5.72;1.30;;;6.40;90.70;;;;;;5065604;28;20206;-71
2021/03/21 00:17:55;;;;;;;8.48;1.40;;;6.40;90.70;;;;;;5048093;28;20015;-71
2021/03/21 00:20:26;;;;;;;5.40;1.40;;;6.40;90.80;;;;;;5048338;28;20028;-71
2021/03/21 00:22:51;;;;;;;3.63;0.90;;;6.40;90.80;;;;;;5031878;28;20013;-71
2021/03/21 00:25:18;;;;;;;3.60;0.93;;;6.40;90.80;;;;;;5031350;28;20254;-71
2021/03/21 00:27:43;;;;;;;5.22;1.10;;;6.40;90.70;;;;;;5047725;28;20009;-71
2021/03/21 00:30:11;;;;;;;6.78;1.45;;;6.40;90.70;;;;;;5064215;28;20220;-71
2021/03/21 00:32:37;;;;;;;6.07;1.27;;;6.50;90.70;;;;;;5047583;28;20123;-71
2021/03/21 00:35:04;;;;;;;5.47;1.20;;;6.50;90.70;;;;;;5047919;28;20036;-71
2021/03/21 00:37:29;;;;;;;13.13;1.83;;;6.50;90.70;;;;;;5048538;28;20351;-71
2021/03/21 00:39:55;;;;;;;9.80;1.85;;;6.50;90.70;;;;;;5048404;28;20008;-70
2021/03/21 00:42:21;;;;;;;6.10;1.88;;;6.50;90.70;;;;;;5048183;28;20073;-69
2021/03/21 00:44:46;;;;;;;5.13;1.45;;;6.50;90.60;;;;;;5064347;28;20052;-70
2021/03/21 00:47:12;;;;;;;8.25;1.50;;;6.60;90.60;;;;;;5048445;28;20107;-70
2021/03/21 00:49:37;;;;;;;5.85;1.17;;;6.60;90.60;;;;;;5064749;28;20020;-70
2021/03/21 00:52:03;;;;;;;9.02;1.98;;;6.60;90.60;;;;;;5064872;28;20019;-69
2021/03/21 00:54:29;;;;;;;9.55;2.30;;;6.60;90.60;;;;;;5047986;28;20009;-70
2021/03/21 00:56:55;;;;;;;6.57;1.70;;;6.50;90.60;;;;;;5031637;28;20231;-71
2021/03/21 00:59:20;;;;;;;9.15;2.03;;;6.50;90.60;;;;;;5048147;28;20080;-71
2021/03/21 01:01:46;;;;;;;7.05;1.52;;;6.60;90.60;;;;;;5047961;28;20021;-70
2021/03/21 01:04:12;;;;;;;10.10;2.30;;;6.50;90.60;;;;;;5065668;28;20218;-70
2021/03/21 01:06:38;;;;;;;10.93;2.38;;;6.50;90.50;;;;;;5047930;28;20024;-70
2021/03/21 01:09:07;;;;;;;11.05;2.00;;;6.60;90.50;;;;;;5047493;28;20346;-70
2021/03/21 01:11:35;;;;;;;11.45;2.35;;;6.60;90.40;;;;;;5063099;28;20220;-70
2021/03/21 01:14:01;;;;;;;13.65;2.50;;;6.50;90.40;;;;;;5063147;28;20005;-71
2021/03/21 01:16:29;;;;;;;16.42;2.80;;;6.60;90.40;;;;;;5046723;28;20009;-70
2021/03/21 01:18:56;;;;;;;10.95;2.40;;;6.50;90.30;;;;;;5064033;28;20040;-70
2021/03/21 01:21:26;;;;;;;14.73;3.35;;;6.50;90.50;;;;;;5031658;28;20333;-70
2021/03/21 01:23:52;;;;;;;10.95;2.45;;;6.40;90.60;;;;;;5049789;28;20005;-70
2021/03/21 01:26:21;;;;;;;18.92;3.10;;;6.40;90.70;;;;;;5064012;28;20023;-70
2021/03/21 01:28:46;;;;;;;11.95;2.25;;;6.50;90.70;;;;;;5046992;28;20025;-70
2021/03/21 01:31:14;;;;;;;11.98;2.20;;;6.40;90.80;;;;;;5063975;28;20009;-70
2021/03/21 01:33:40;;;;;;;15.90;3.20;;;6.40;90.90;;;;;;5065360;28;20009;-70
2021/03/21 01:36:10;;;;;;;17.80;3.38;;;6.30;91.00;;;;;;5047447;28;20044;-70
2021/03/21 01:38:36;;;;;;;18.50;3.20;;;6.30;91.20;;;;;;5048046;28;20005;-70
2021/03/21 01:41:03;;;;;;;14.27;2.90;;;6.20;91.20;;;;;;5047127;28;20379;-70
2021/03/21 01:43:31;;;;;;;18.27;3.20;;;6.20;91.30;;;;;;5063876;28;20060;-70
2021/03/21 01:45:57;;;;;;;17.45;2.85;;;6.20;91.30;;;;;;5047276;28;20009;-70
2021/03/21 01:48:33;;;;;;;18.70;2.85;;;6.30;91.70;;;;;;5064087;28;20021;-70
2021/03/21 01:51:05;;;;;;;23.67;3.45;;;6.30;91.30;;;;;;5065000;28;20009;-70
2021/03/21 01:53:31;;;;;;;16.63;3.40;;;6.20;91.30;;;;;;5046885;28;20028;-70
2021/03/21 01:55:57;;;;;;;21.08;4.25;;;6.20;91.50;;;;;;5030418;28;20013;-71
2021/03/21 01:58:24;;;;;;;18.75;3.33;;;6.10;91.60;;;;;;5064022;28;20020;-70
2021/03/21 02:00:52;;;;;;;22.88;3.85;;;6.10;91.70;;;;;;5047253;28;20020;-70
2021/03/21 02:03:17;;;;;;;19.88;3.80;;;6.00;91.80;;;;;;5047240;28;20020;-70
2021/03/21 02:05:43;;;;;;;18.67;3.38;;;6.00;91.90;;;;;;5047113;28;20044;-71
2021/03/21 02:08:31;;;;;;;17.20;3.67;;;5.90;92.00;;;;;;5046440;28;20065;-70
2021/03/21 02:11:03;;;;;;;21.23;3.92;;;5.90;92.00;;;;;;5062936;28;20013;-70
2021/03/21 02:14:04;;;;;;;14.75;3.08;;;5.90;92.10;;;;;;5063185;28;20013;-70
2021/03/21 02:16:55;;;;;;;15.30;2.45;;;6.00;92.10;;;;;;5041697;28;20315;-72
2021/03/21 02:19:38;;;;;;;16.30;2.85;;;6.00;92.00;;;;;;5007641;28;20231;-71
2021/03/21 02:22:10;;;;;;;16.42;3.63;;;6.00;92.10;;;;;;5024691;28;20089;-70
2021/03/21 02:25:02;;;;;;;19.35;3.42;;;5.90;92.50;;;;;;5025638;28;20013;-70
2021/03/21 02:27:44;;;;;;;19.15;3.38;;;5.90;92.20;;;;;;5041910;28;20060;-69
2021/03/21 02:30:13;;;;;;;20.45;3.47;;;5.90;92.20;;;;;;5025698;28;20028;-70
2021/03/21 02:32:43;;;;;;;18.60;4.47;;;5.80;92.40;;;;;;5025691;28;20021;-70
2021/03/21 02:35:34;;;;;;;18.88;4.18;;;5.70;92.50;;;;;;5025793;28;20073;-70
2021/03/21 02:38:08;;;;;;;14.77;2.85;;;5.80;92.60;;;;;;5031157;28;20093;-70
2021/03/21 02:40:46;;;;;;;15.85;3.08;;;5.80;92.50;;;;;;5025725;28;20099;-70
2021/03/21 02:43:20;;;;;;;15.85;3.17;;;5.70;92.50;;;;;;5009520;28;20354;-70
2021/03/21 02:45:49;;;;;;;21.35;3.80;;;5.70;92.70;;;;;;5025216;28;20338;-72
2021/03/21 02:48:19;;;;;;;24.60;4.78;;;5.70;92.70;;;;;;5022271;28;20334;-70
2021/03/21 02:50:53;;;;;;;24.33;4.45;;;5.60;92.90;;;;;;5025117;28;20040;-71
2021/03/21 02:53:31;;;;;;;22.58;3.75;;;5.60;92.90;;;;;;5024815;28;20097;-70
2021/03/21 02:55:59;;;;;;;15.85;3.55;;;5.60;92.90;;;;;;5062633;28;20011;-71
2021/03/21 02:58:31;;;;;;;12.77;2.97;;;5.60;92.90;;;;;;5062709;28;20013;-71
2021/03/21 03:01:05;;;;;;;20.60;3.53;;;5.70;92.90;;;;;;5063139;28;20016;-70
2021/03/21 03:03:31;;;;;;;25.48;5.15;;;5.70;92.90;;;;;;5046036;28;20016;-70
2021/03/21 03:06:00;;;;;;;21.58;3.88;;;5.50;93.00;;;;;;5062564;28;20076;-70
2021/03/21 03:08:42;;;;;;;19.25;3.28;;;5.50;93.00;;;;;;5045914;28;20242;-71
2021/03/21 03:11:16;;;;;;;18.00;3.40;;;5.50;93.00;;;;;;5062840;28;20377;-70
2021/03/21 03:13:45;;;;;;;16.85;3.25;;;5.50;93.00;;;;;;5062785;28;20013;-71
2021/03/21 03:16:24;;;;;;;19.35;4.18;;;5.50;93.10;;;;;;5062305;28;20001;-70
2021/03/21 03:19:03;;;;;;;23.40;4.53;;;5.50;93.40;;;;;;5062085;28;20062;-71
2021/03/21 03:21:34;;;;;;;20.15;3.83;;;5.50;93.20;;;;;;5063536;28;20017;-70
2021/03/21 03:24:20;;;;;;;27.70;4.60;;;5.50;93.20;;;;;;5045339;28;20039;-70
2021/03/21 03:26:51;;;;;;;25.70;4.65;;;5.50;93.10;;;;;;5062358;28;20067;-70
2021/03/21 03:29:20;;;;;;;18.70;4.00;;;5.40;93.10;;;;;;5065643;28;20243;-71
2021/03/21 03:31:50;;;;;;;21.83;4.63;;;5.40;93.10;;;;;;5065780;28;20009;-70
2021/03/21 03:34:16;;;;;;;25.95;4.60;;;5.40;93.20;;;;;;5064773;28;20017;-72
2021/03/21 03:36:42;;;;;;;17.38;3.70;;;5.40;93.20;;;;;;5048204;28;20017;-70
2021/03/21 03:39:07;;;;;;;25.65;4.43;;;5.40;93.30;;;;;;5048731;28;20020;-70
2021/03/21 03:41:43;;;;;;;28.42;3.83;;;5.20;93.20;;;;;;5067257;28;20245;-70
2021/03/21 03:44:37;;;;;;;22.00;3.95;;;5.20;93.40;;;;;;5065909;28;20017;-70
2021/03/21 03:47:56;;;;;;;25.77;4.43;;;5.10;93.40;;;;;;5065438;28;20013;-71
2021/03/21 03:50:28;;;;;;;26.77;4.35;;;5.10;93.40;;;;;;5054301;28;20353;-71
2021/03/21 03:53:05;;;;;;;25.08;3.85;;;5.10;93.10;;;;;;5064992;28;20080;-71
2021/03/21 03:55:46;;;;;;;19.60;3.72;;;5.20;92.90;;;;;;5048039;28;20203;-71
2021/03/21 03:58:20;;;;;;;18.27;3.67;;;5.20;92.60;;;;;;5065221;28;20009;-71
2021/03/21 04:01:15;;;;;;;20.23;3.05;;;5.20;92.30;;;;;;5064960;28;20071;-71
2021/03/21 04:03:57;;;;;;;13.07;3.53;;;5.30;91.90;;;;;;5047942;28;20054;-71
2021/03/21 04:06:32;;;;;;;18.90;3.10;;;5.30;91.90;;;;;;5032112;28;20013;-71
2021/03/21 04:09:04;;;;;;;19.85;3.03;;;5.30;91.30;;;;;;5066031;28;20052;-71
2021/03/21 04:11:35;;;;;;;18.75;3.50;;;5.40;91.00;;;;;;5048923;28;20027;-71
2021/03/21 04:14:12;;;;;;;21.52;3.38;;;5.40;90.60;;;;;;5048618;28;20001;-71
2021/03/21 04:16:42;;;;;;;12.38;2.50;;;5.40;90.40;;;;;;5064609;28;20016;-71
2021/03/21 04:19:12;;;;;;;17.25;3.08;;;5.50;90.00;;;;;;5048049;28;20005;-71
2021/03/21 04:21:49;;;;;;;15.05;2.60;;;5.50;89.20;;;;;;5048101;28;20059;-70
2021/03/21 04:24:28;;;;;;;17.83;2.90;;;5.50;88.90;;;;;;5064614;28;20306;-70
2021/03/21 04:27:10;;;;;;;16.10;2.97;;;5.50;88.40;;;;;;5064589;28;20020;-70
2021/03/21 04:29:41;;;;;;;20.67;3.05;;;5.50;88.30;;;;;;5050151;28;20017;-70
2021/03/21 04:32:25;;;;;;;15.07;3.08;;;5.50;88.40;;;;;;5048766;28;20024;-70
2021/03/21 04:34:52;;;;;;;17.50;2.95;;;5.50;88.70;;;;;;5049699;28;20115;-70
2021/03/21 04:37:17;;;;;;;21.80;3.08;;;5.50;88.80;;;;;;5031763;28;20059;-70
2021/03/21 04:39:43;;;;;;;16.88;2.85;;;5.40;89.00;;;;;;5031113;28;20206;-70
2021/03/21 04:42:22;;;;;;;19.63;3.38;;;5.40;89.10;;;;;;5064494;28;20021;-71
2021/03/21 04:44:53;;;;;;;18.40;3.03;;;5.40;89.20;;;;;;5032990;28;20025;-71
2021/03/21 04:47:19;;;;;;;21.23;3.05;;;5.30;89.20;;;;;;5065144;28;20047;-70
2021/03/21 04:49:44;;;;;;;22.83;3.15;;;5.30;89.10;;;;;;5064852;28;20342;-70
2021/03/21 04:52:19;;;;;;;15.25;2.67;;;5.30;89.00;;;;;;5044181;28;20080;-70
2021/03/21 04:54:46;;;;;;;20.00;3.05;;;5.30;88.80;;;;;;5044647;28;20032;-71
2021/03/21 04:57:21;;;;;;;13.20;2.55;;;5.30;88.50;;;;;;5028254;28;20009;-70
2021/03/21 04:59:46;;;;;;;16.92;3.17;;;5.30;88.50;;;;;;5045682;28;20017;-71
2021/03/21 05:02:17;;;;;;;19.50;3.15;;;5.20;88.50;;;;;;5044474;28;20077;-70
2021/03/21 05:04:45;;;;;;;14.82;2.85;;;5.20;88.10;;;;;;5028546;28;20322;-70
2021/03/21 05:07:16;;;;;;;11.02;2.83;;;5.20;87.50;;;;;;5029213;28;20360;-70
2021/03/21 05:09:45;;;;;;;13.90;2.63;;;5.30;87.10;;;;;;5044396;28;20049;-70
2021/03/21 05:12:16;;;;;;;12.77;2.30;;;5.20;86.80;;;;;;5011755;28;20018;-70
2021/03/21 05:14:48;;;;;;;19.20;2.58;;;5.20;86.70;;;;;;5011927;28;20005;-70
2021/03/21 05:17:16;;;;;;;17.10;2.50;;;5.20;86.80;;;;;;5028210;28;20072;-70
2021/03/21 05:19:45;;;;;;;16.10;2.75;;;5.20;86.70;;;;;;5051970;28;20009;-70
2021/03/21 05:22:26;;;;;;;10.85;2.25;;;5.20;86.60;;;;;;5063604;28;20016;-70
2021/03/21 05:25:09;;;;;;;11.68;2.20;;;5.10;86.20;;;;;;5063381;28;20238;-70
2021/03/21 05:27:38;;;;;;;12.18;2.00;;;5.10;85.90;;;;;;5063666;28;20013;-70
2021/03/21 05:30:07;;;;;;;11.00;1.90;;;5.10;85.50;;;;;;5063476;28;20013;-70
2021/03/21 05:32:33;;;;;;;13.00;2.38;;;5.10;85.20;;;;;;5063638;28;20347;-70
2021/03/21 05:34:59;;;;;;;10.20;1.90;;;5.10;84.90;;;;;;5046763;28;20009;-70
2021/03/21 05:37:29;;;;;;;8.88;1.65;;;5.10;84.80;;;;;;5063262;28;20005;-70
2021/03/21 05:40:01;;;;;;;7.15;1.65;;;5.10;84.30;;;;;;5063296;28;20013;-71
2021/03/21 05:42:44;;;;;;;13.10;2.17;;;5.10;84.10;;;;;;5063429;28;20306;-71
2021/03/21 05:45:22;;;;;;;11.25;1.65;;;5.10;83.90;;;;;;5064242;28;20013;-71
2021/03/21 05:48:06;;;;;;;13.50;2.25;;;5.10;83.40;;;;;;5063233;28;20017;-71
2021/03/21 05:50:56;;;;;;;10.45;1.65;;;5.10;82.30;;;;;;5063623;28;20009;-71
2021/03/21 05:53:40;;;;;;;7.95;1.48;;;5.10;81.30;;;;;;5063744;28;20009;-70
2021/03/21 05:56:25;;;;;;;8.45;1.27;;;5.20;80.80;;;;;;5063198;28;20020;-70
2021/03/21 05:59:05;;;;;;;5.20;1.15;;;5.20;79.90;;;;;;5061812;28;20024;-71
2021/03/21 06:01:54;;;;;;;6.75;1.77;;;5.20;78.40;;;;;;5062891;28;20021;-70
2021/03/21 06:04:47;;;;;;;8.02;2.08;;;5.30;77.60;;;;;;5046071;28;20013;-70
2021/03/21 06:07:32;;;;;;;7.78;1.10;;;5.30;76.60;;;;;;5062455;28;20040;-71
2021/03/21 06:10:32;;;;;;;4.10;1.00;;;5.30;76.40;;;;;;5063523;28;20051;-70
2021/03/21 06:13:30;;;;;;;4.72;1.20;;;5.30;75.90;;;;;;5064067;28;20017;-70
2021/03/21 06:16:02;;;;;;;4.50;0.80;;;5.30;75.80;;;;;;5063007;28;20012;-70
2021/03/21 06:18:37;;;;;;;6.35;1.48;;;5.30;75.80;;;;;;5062705;28;20338;-70
2021/03/21 06:21:33;;;;;;;4.72;2.10;;;5.30;76.10;;;;;;5063886;28;20020;-69
2021/03/21 06:24:07;;;;;;;5.15;1.90;;;5.30;76.50;;;;;;5063382;28;20027;-70
2021/03/21 06:26:41;;;;;;;9.23;2.90;;;5.30;76.80;;;;;;5063604;28;20336;-70
2021/03/21 06:29:26;;;;;;;8.02;2.90;;;5.30;77.00;;;;;;5046383;28;20035;-70
2021/03/21 06:32:10;;;;;;;7.95;2.92;;;5.30;76.90;;;;;;5063872;28;20016;-70
2021/03/21 06:35:11;;;;;;;5.53;2.15;;;5.40;76.10;;;;;;5062375;28;20009;-71
2021/03/21 06:38:05;;;;;;;5.43;1.98;;;5.40;74.70;;;;;;5062746;28;20009;-70
2021/03/21 06:40:54;;;;;;;5.07;1.77;;;5.50;73.30;;;;;;5063023;28;20222;-70
2021/03/21 06:44:03;;;;;;;5.50;1.17;;;5.50;72.60;;;;;;5062750;28;20080;-70
2021/03/21 06:47:15;;;;;;;4.53;1.00;;;5.60;71.90;;;;;;5035358;28;20009;-70
2021/03/21 06:50:01;;;;;;;;;;;5.70;72.40;;;;;;5002496;28;20266;-71
2021/03/21 06:52:51;;;;;;;4.88;0.88;;;5.70;73.10;;;;;;5050056;28;19947;-71
2021/03/21 06:55:39;;;;;;;3.65;1.00;;;5.70;73.20;;;;;;5043880;28;20013;-70
2021/03/21 06:58:07;;;;;;;4.75;1.00;;;5.80;73.20;;;;;;5034081;28;20195;-71
2021/03/21 07:01:00;;;;;;;3.83;1.00;;;5.80;72.80;;;;;;5045786;28;20021;-71
2021/03/21 07:04:03;;;;;;;2.13;0.70;;;5.90;71.60;;;;;;5050756;28;20132;-72
2021/03/21 07:06:56;;;;;;;2.38;0.68;;;5.90;70.70;;;;;;5050943;28;20013;-71
2021/03/21 07:09:47;;;;;;;2.15;0.60;;;6.00;69.00;;;;;;5067933;28;20044;-71
2021/03/21 07:12:47;;;;;;;2.38;0.80;;;6.10;67.50;;;;;;5072292;28;20020;-72
2021/03/21 07:15:29;;;;;;;2.53;0.88;;;6.10;66.50;;;;;;5072331;28;20016;-70
2021/03/21 07:18:10;;;;;;;1.85;0.70;;;6.20;65.20;;;;;;5051949;28;20044;-70
2021/03/21 07:20:54;;;;;;;2.58;0.70;;;6.20;63.50;;;;;;5067591;28;20051;-70
2021/03/21 07:23:26;;;;;;;2.72;0.75;;;6.30;62.80;;;;;;5067043;28;20017;-70
2021/03/21 07:26:14;;;;;;;2.58;0.98;;;6.70;62.10;;;;;;5066279;28;20016;-71
2021/03/21 07:29:00;;;;;;;2.63;0.70;;;8.10;57.70;;;;;;5066501;28;20110;-70
2021/03/21 07:31:34;;;;;;;2.17;0.80;;;9.00;54.80;;;;;;5062877;28;20040;-70
2021/03/21 07:34:27;;;;;;;1.25;0.68;;;9.30;53.20;;;;;;5065648;28;20310;-70
2021/03/21 07:37:10;;;;;;;1.58;0.63;;;10.00;52.10;;;;;;5065392;28;20009;-71
2021/03/21 07:40:00;;;;;;;2.25;0.80;;;9.90;49.40;;;;;;5066944;28;20055;-71
2021/03/21 07:42:45;;;;;;;2.55;0.80;;;10.10;48.80;;;;;;5066370;28;20009;-71
2021/03/21 07:45:28;;;;;;;2.25;0.65;;;10.30;48.30;;;;;;5065700;28;20062;-71
2021/03/21 07:48:29;;;;;;;2.42;0.50;;;10.50;47.80;;;;;;5064737;28;20013;-73
2021/03/21 07:51:01;;;;;;;0.75;0.40;;;11.00;46.10;;;;;;5048270;28;20008;-71
2021/03/21 07:53:31;;;;;;;2.08;0.63;;;10.50;45.40;;;;;;5064618;28;20061;-72
2021/03/21 07:56:19;;;;;;;1.98;0.43;;;10.60;45.70;;;;;;5048406;28;20001;-72
2021/03/21 07:59:01;;;;;;;2.80;0.77;;;11.00;45.00;;;;;;5067487;28;20009;-72
2021/03/21 08:01:27;;;;;;;2.05;0.63;;;11.20;44.10;;;;;;5033411;28;20218;-72
2021/03/21 08:03:56;;;;;;;2.75;0.52;;;10.60;43.60;;;;;;5048212;28;20017;-72
2021/03/21 08:07:09;;;;;;;0.82;0.40;;;10.50;44.30;;;;;;5048441;28;20032;-72
2021/03/21 08:09:36;;;;;;;1.45;0.60;;;10.90;43.30;;;;;;5043515;28;20050;-72
2021/03/21 08:12:20;;;;;;;2.42;0.85;;;10.60;42.70;;;;;;5026869;28;20027;-72
2021/03/21 08:14:51;;;;;;;1.88;0.73;;;10.50;43.40;;;;;;5043056;28;20013;-73
2021/03/21 08:17:23;;;;;;;1.83;0.80;;;10.40;43.00;;;;;;5026511;28;20009;-71
2021/03/21 08:19:55;;;;;;;0.90;0.40;;;10.30;43.40;;;;;;5010226;28;20083;-71
2021/03/21 08:22:22;;;;;;;2.55;0.52;;;10.50;43.30;;;;;;5026620;28;20013;-71
2021/03/21 08:24:48;;;;;;;3.33;0.70;;;10.00;42.60;;;;;;5026529;28;20030;-71
2021/03/21 08:27:25;;;;;;;1.67;0.70;;;10.00;43.30;;;;;;5027416;28;20341;-71
2021/03/21 08:30:12;;;;;;;2.47;0.50;;;10.20;43.50;;;;;;5023465;28;20373;-71
2021/03/21 08:32:58;;;;;;;2.22;0.77;;;10.50;43.20;;;;;;5007603;28;20267;-71
2021/03/21 08:35:29;;;;;;;1.92;0.60;;;11.10;42.80;;;;;;4993985;28;20238;-71
2021/03/21 08:38:13;;;;;;;1.65;0.60;;;11.80;41.60;;;;;;5026921;28;20040;-71
2021/03/21 08:40:39;;;;;;;1.10;0.50;;;11.40;40.30;;;;;;5027181;28;20049;-71
2021/03/21 08:43:24;;;;;;;2.65;0.60;;;11.20;40.10;;;;;;5027759;28;20029;-71
2021/03/21 08:45:56;;;;;;;4.32;0.85;;;10.90;40.20;;;;;;5026609;28;20074;-71
2021/03/21 08:48:27;;;;;;;;;;;10.90;40.10;;;;;;5056229;28;20226;-70
2021/03/21 08:50:53;;;;;;;1.85;0.70;;;10.70;40.60;;;;;;5065763;28;19896;-71
2021/03/21 08:53:36;;;;;;;1.23;0.50;;;10.60;41.40;;;;;;5027174;28;20099;-72
2021/03/21 08:56:32;;;;;;;1.38;0.50;;;11.10;41.70;;;;;;5043223;28;20014;-73
2021/03/21 08:59:21;;;;;;;2.35;0.60;;;11.80;41.30;;;;;;5043515;28;20013;-72
2021/03/21 09:02:16;;;;;;;2.08;0.57;;;11.30;40.40;;;;;;5043260;28;20012;-72
2021/03/21 09:05:01;;;;;;;2.75;0.57;;;11.40;40.90;;;;;;5005534;28;20017;-72
2021/03/21 09:07:31;;;;;;;2.22;0.82;;;11.50;40.40;;;;;;5022762;28;20068;-71
2021/03/21 09:10:12;;;;;;;2.20;0.60;;;11.20;40.40;;;;;;5023359;28;20429;-71
2021/03/21 09:12:39;;;;;;;0.70;0.45;;;11.40;39.80;;;;;;5023094;28;20042;-71
2021/03/21 09:15:31;;;;;;;1.83;0.70;;;11.30;39.50;;;;;;5023057;28;20025;-71
2021/03/21 09:18:19;;;;;;;0.90;0.50;;;12.10;39.00;;;;;;5022158;28;20018;-72
2021/03/21 09:20:54;;;;;;;1.88;0.63;;;11.80;37.90;;;;;;5021871;28;20101;-72
2021/03/21 09:23:37;;;;;;;1.52;0.70;;;11.10;39.50;;;;;;5022140;28;20312;-72
2021/03/21 09:26:08;;;;;;;1.23;0.60;;;10.90;39.90;;;;;;5004698;28;20010;-72
2021/03/21 09:28:34;;;;;;;2.35;0.57;;;10.80;40.40;;;;;;5039343;28;20380;-72
2021/03/21 09:31:05;;;;;;;3.08;0.60;;;11.30;40.40;;;;;;4992319;28;20017;-72
2021/03/21 09:34:01;;;;;;;1.27;0.57;;;12.20;39.30;;;;;;4994264;28;20017;-71
2021/03/21 09:36:54;;;;;;;1.98;0.60;;;12.50;38.30;;;;;;5014043;28;20062;-71
2021/03/21 09:39:48;;;;;;;2.60;0.82;;;11.70;38.00;;;;;;5030919;28;20021;-71
2021/03/21 09:42:14;;;;;;;0.85;0.45;;;12.00;37.50;;;;;;5015486;28;20025;-71
2021/03/21 09:44:44;;;;;;;2.17;0.50;;;11.70;37.30;;;;;;5042935;28;20031;-71
2021/03/21 09:47:31;;;;;;;3.13;0.68;;;11.30;38.00;;;;;;5010292;28;20223;-71
2021/03/21 09:50:15;;;;;;;0.50;0.40;;;11.60;38.20;;;;;;5027670;28;20029;-71
2021/03/21 09:52:45;;;;;;;0.73;0.40;;;11.40;36.80;;;;;;5042329;28;20036;-72
2021/03/21 09:55:38;;;;;;;2.28;0.60;;;11.40;37.50;;;;;;5027388;28;20010;-71
2021/03/21 09:58:12;;;;;;;2.42;0.65;;;11.50;37.10;;;;;;5044004;28;20013;-71
2021/03/21 10:00:39;;;;;;;0.95;0.60;;;11.10;37.70;;;;;;5043850;28;20009;-71
2021/03/21 10:03:10;;;;;;;1.70;0.63;;;11.00;37.90;;;;;;5043990;28;20013;-71
2021/03/21 10:05:50;;;;;;;1.30;0.57;;;11.30;38.20;;;;;;5043267;28;20024;-72
2021/03/21 10:08:21;;;;;;;1.90;0.50;;;11.40;38.80;;;;;;5028187;28;20037;-72
2021/03/21 10:10:58;;;;;;;1.77;0.57;;;12.10;37.80;;;;;;5043385;28;20052;-72
2021/03/21 10:13:40;;;;;;;2.58;0.60;;;11.80;36.70;;;;;;5042586;28;20228;-72
2021/03/21 10:16:15;;;;;;;2.05;0.60;;;11.50;35.80;;;;;;5026626;28;20242;-73
2021/03/21 10:18:48;;;;;;;2.17;0.88;;;11.60;36.10;;;;;;5042660;28;20013;-71
2021/03/21 10:21:38;;;;;;;1.35;0.50;;;11.10;36.80;;;;;;5043997;28;20016;-71
2021/03/21 10:24:15;;;;;;;2.28;0.60;;;11.30;37.30;;;;;;5026571;28;20270;-71
2021/03/21 10:27:25;;;;;;;2.50;0.85;;;11.70;35.60;;;;;;5043310;28;20032;-71
2021/03/21 10:30:06;;;;;;;1.02;0.50;;;11.70;35.60;;;;;;5040713;28;20069;-70
2021/03/21 10:32:33;;;;;;;2.60;0.52;;;11.90;35.70;;;;;;5010327;28;20358;-71
2021/03/21 10:34:59;;;;;;;2.65;0.73;;;11.80;35.70;;;;;;5026072;28;20338;-71
2021/03/21 10:37:43;;;;;;;2.40;0.60;;;11.70;35.40;;;;;;5045381;28;20014;-71
2021/03/21 10:40:24;;;;;;;1.42;0.65;;;11.80;35.70;;;;;;5046983;28;20081;-71
2021/03/21 10:42:52;;;;;;;1.65;0.70;;;11.70;34.60;;;;;;5045900;28;20032;-71
2021/03/21 10:45:38;;;;;;;3.33;0.52;;;11.70;34.70;;;;;;5052346;28;20005;-71
2021/03/21 10:48:24;;;;;;;2.42;0.73;;;11.00;35.00;;;;;;5067071;28;20047;-71
2021/03/21 10:50:52;;;;;;;2.58;0.40;;;11.00;36.20;;;;;;5066988;28;20060;-70
2021/03/21 10:53:30;;;;;;;2.70;0.70;;;11.20;35.50;;;;;;5066128;28;20008;-71
2021/03/21 10:56:10;;;;;;;1.15;0.50;;;11.00;36.20;;;;;;5050640;28;20008;-71
2021/03/21 10:58:57;;;;;;;1.55;0.68;;;11.00;36.30;;;;;;5066945;28;20009;-70
2021/03/21 11:01:25;;;;;;;2.53;0.75;;;11.00;36.60;;;;;;5066588;28;20005;-70
2021/03/21 11:04:02;;;;;;;2.78;0.70;;;11.10;37.10;;;;;;5050379;28;20013;-71
2021/03/21 11:06:35;;;;;;;1.50;0.68;;;11.00;37.80;;;;;;5067806;28;20202;-71
2021/03/21 11:09:13;;;;;;;3.38;1.63;;;11.70;38.60;;;;;;5066029;28;20036;-71
2021/03/21 11:11:40;;;;;;;2.28;0.70;;;11.50;37.10;;;;;;5066564;28;20019;-71
2021/03/21 11:14:19;;;;;;;8.30;1.30;;;10.10;37.50;;;;;;5050201;28;20229;-70
2021/03/21 11:16:59;;;;;;;4.65;1.23;;;9.80;46.70;;;;;;5066372;28;20028;-71
2021/03/21 11:19:27;;;;;;;4.68;1.35;;;9.70;47.60;;;;;;5033893;28;20306;-72
2021/03/21 11:21:53;;;;;;;6.25;1.60;;;9.40;49.90;;;;;;5065623;28;20009;-71
2021/03/21 11:24:32;;;;;;;6.50;1.45;;;9.10;52.50;;;;;;5049848;28;20017;-70
2021/03/21 11:27:01;;;;;;;11.30;1.85;;;9.10;50.00;;;;;;5050877;28;20080;-70
2021/03/21 11:29:29;;;;;;;7.20;1.80;;;9.10;51.80;;;;;;5033490;28;20031;-70
2021/03/21 11:31:59;;;;;;;7.55;2.13;;;8.80;53.80;;;;;;5065966;28;19997;-70
2021/03/21 11:34:29;;;;;;;7.72;2.10;;;8.50;55.90;;;;;;5066038;28;20016;-70
2021/03/21 11:37:33;;;;;;;7.35;2.03;;;8.40;57.20;;;;;;5065833;28;20009;-70
2021/03/21 11:40:06;;;;;;;12.60;2.50;;;8.30;57.90;;;;;;5045290;28;20026;-71
2021/03/21 11:42:38;;;;;;;12.73;3.13;;;8.30;58.10;;;;;;5029057;28;20052;-70
2021/03/21 11:45:21;;;;;;;10.18;2.10;;;8.10;58.20;;;;;;5031021;28;20028;-72
2021/03/21 11:48:14;;;;;;;8.35;2.17;;;7.90;58.80;;;;;;5043938;28;20025;-72
2021/03/21 11:50:44;;;;;;;11.70;2.10;;;7.90;59.30;;;;;;5023572;28;20037;-71
2021/03/21 11:53:18;;;;;;;8.57;2.30;;;7.90;59.30;;;;;;5027964;28;20006;-71
2021/03/21 11:55:54;;;;;;;11.32;2.90;;;7.80;58.60;;;;;;5011514;28;20018;-72
2021/03/21 11:58:36;;;;;;;13.63;2.83;;;7.80;59.10;;;;;;5028145;28;20242;-72
2021/03/21 12:01:17;;;;;;;8.48;2.10;;;7.70;59.60;;;;;;5028027;28;20075;-72
2021/03/21 12:03:47;;;;;;;11.88;2.53;;;7.90;58.30;;;;;;5028075;28;20030;-72
2021/03/21 12:06:41;;;;;;;9.90;2.53;;;7.90;58.10;;;;;;5027647;28;20013;-72
2021/03/21 12:09:36;;;;;;;10.02;2.55;;;7.80;57.70;;;;;;5027251;28;20364;-71
2021/03/21 12:12:26;;;;;;;10.65;2.38;;;7.70;58.00;;;;;;5026885;28;20339;-72
2021/03/21 12:14:52;;;;;;;10.02;2.20;;;7.80;57.60;;;;;;5023733;28;20396;-71
2021/03/21 12:17:23;;;;;;;12.23;2.42;;;7.80;57.70;;;;;;5024421;28;20034;-71
2021/03/21 12:19:50;;;;;;;10.98;2.05;;;7.90;57.10;;;;;;5026091;28;20013;-71
2021/03/21 12:22:34;;;;;;;9.85;2.35;;;7.80;57.00;;;;;;5025969;28;20010;-70
2021/03/21 12:25:01;;;;;;;9.57;2.20;;;7.70;57.70;;;;;;5009326;28;20013;-71
2021/03/21 12:27:31;;;;;;;12.32;2.03;;;7.70;57.40;;;;;;5026601;28;20017;-71
2021/03/21 12:30:21;;;;;;;7.82;1.95;;;7.70;57.70;;;;;;5025513;28;20021;-71
2021/03/21 12:32:49;;;;;;;6.90;1.77;;;7.80;56.90;;;;;;5034075;28;20022;-69
2021/03/21 12:35:27;;;;;;;11.82;2.50;;;7.80;57.50;;;;;;5025197;28;20014;-70
2021/03/21 12:38:00;;;;;;;7.68;2.00;;;7.90;57.00;;;;;;5026052;28;20016;-70
2021/03/21 12:40:34;;;;;;;8.35;2.10;;;8.00;56.40;;;;;;5024968;28;20072;-70
2021/03/21 12:43:17;;;;;;;9.45;2.10;;;8.00;55.90;;;;;;5025143;28;20013;-71
2021/03/21 12:46:02;;;;;;;7.60;1.85;;;8.00;56.00;;;;;;5025957;28;20243;-70
2021/03/21 12:48:28;;;;;;;12.27;2.95;;;8.00;56.40;;;;;;5026015;28;20026;-72
2021/03/21 12:50:54;;;;;;;9.65;2.42;;;7.90;56.40;;;;;;5025777;28;20057;-72
2021/03/21 12:53:22;;;;;;;10.13;2.28;;;7.80;56.50;;;;;;5025510;28;20028;-70
2021/03/21 12:55:48;;;;;;;13.40;2.30;;;7.70;57.20;;;;;;5040941;28;20013;-72
2021/03/21 12:58:14;;;;;;;10.05;2.50;;;7.70;57.20;;;;;;5024484;28;20014;-70
2021/03/21 13:00:39;;;;;;;9.90;2.10;;;7.60;57.50;;;;;;5024272;28;20025;-71
2021/03/21 13:03:06;;;;;;;9.65;2.33;;;7.80;57.10;;;;;;5041540;28;20061;-70
2021/03/21 13:05:35;;;;;;;14.82;2.40;;;8.00;56.50;;;;;;5040575;28;20010;-71
2021/03/21 13:08:01;;;;;;;9.15;2.45;;;8.10;55.30;;;;;;5054403;28;20029;-70
2021/03/21 13:10:28;;;;;;;5.72;1.80;;;8.10;54.10;;;;;;5063663;28;20119;-71
2021/03/21 13:12:53;;;;;;;8.38;2.45;;;8.20;53.90;;;;;;5064474;28;20047;-71
2021/03/21 13:15:20;;;;;;;9.82;2.88;;;8.20;54.10;;;;;;5064959;28;20037;-71
2021/03/21 13:17:45;;;;;;;7.88;1.70;;;8.20;53.10;;;;;;5064378;28;20013;-71
2021/03/21 13:20:14;;;;;;;8.23;1.85;;;8.40;52.60;;;;;;5064083;28;20322;-71
2021/03/21 13:22:39;;;;;;;8.60;1.90;;;8.50;50.80;;;;;;5047090;28;20080;-72
2021/03/21 13:25:06;;;;;;;5.78;1.75;;;8.50;50.70;;;;;;5047602;28;20009;-72
2021/03/21 13:27:32;;;;;;;8.98;1.85;;;8.60;50.10;;;;;;5030269;28;20017;-72
2021/03/21 13:29:58;;;;;;;5.22;1.30;;;8.70;48.80;;;;;;5063360;28;20279;-71
2021/03/21 13:32:24;;;;;;;7.47;1.67;;;8.70;48.70;;;;;;5049600;28;20233;-72
2021/03/21 13:34:50;;;;;;;7.00;1.50;;;8.70;48.30;;;;;;5063116;28;20054;-71